AAL1120 KORD-KMSP
Flight info
| Callsign | AAL1120 |
|---|---|
| Flight time | 1h 11m |
| Altitude | 34000 |
| Route | PMPKN NEATO DLLAN RONIC KAMMA KKILR4 |
| Aircraft | B738/M-SDE2E3FGHIRWXY/LB1 |
Departure
| Time | 2026-04-30 19:03 |
|---|---|
| Airport | Chicago O'Hare International Airport (KORD) |
Arrival
| Time | 2026-04-30 20:14 |
|---|---|
| Airport | Minneapolis–Saint Paul International Airport / Wold–Chamberlain Field (KMSP) |
| Time | Latitude | Longitude | Altitude | Speed | Heading |
|---|---|---|---|---|---|
| 2026-04-30 18:45 | 41.97439 | -87.89831 | 658 ft | 0 kts | 31° |
| 2026-04-30 18:51 | 41.97438 | -87.89832 | 658 ft | 1 kts | 32° |
| 2026-04-30 18:52 | 41.97424 | -87.89839 | 658 ft | 2 kts | 20° |
| 2026-04-30 18:52 | 41.97413 | -87.89846 | 658 ft | 0 kts | 24° |
| 2026-04-30 18:52 | 41.97407 | -87.89851 | 658 ft | 0 kts | 80° |
| 2026-04-30 18:52 | 41.97407 | -87.89857 | 658 ft | 0 kts | 120° |
| 2026-04-30 18:53 | 41.97411 | -87.89864 | 658 ft | 0 kts | 121° |
| 2026-04-30 18:53 | 41.97412 | -87.89864 | 658 ft | 0 kts | 121° |
| 2026-04-30 18:55 | 41.97411 | -87.89864 | 658 ft | 1 kts | 123° |
| 2026-04-30 18:56 | 41.97330 | -87.89814 | 657 ft | 8 kts | 153° |
| 2026-04-30 18:56 | 41.97279 | -87.89764 | 656 ft | 10 kts | 137° |
| 2026-04-30 18:56 | 41.97217 | -87.89715 | 655 ft | 10 kts | 186° |
| 2026-04-30 18:57 | 41.97142 | -87.89898 | 659 ft | 14 kts | 258° |
| 2026-04-30 18:57 | 41.97137 | -87.90040 | 661 ft | 15 kts | 270° |
| 2026-04-30 18:57 | 41.97088 | -87.90132 | 660 ft | 12 kts | 190° |
| 2026-04-30 18:58 | 41.97041 | -87.90360 | 664 ft | 17 kts | 269° |
| 2026-04-30 18:58 | 41.97041 | -87.90563 | 666 ft | 24 kts | 270° |
| 2026-04-30 18:58 | 41.97041 | -87.90789 | 668 ft | 24 kts | 269° |
| 2026-04-30 18:59 | 41.97040 | -87.91261 | 668 ft | 26 kts | 270° |
| 2026-04-30 19:00 | 41.97039 | -87.91949 | 669 ft | 12 kts | 270° |
| 2026-04-30 19:00 | 41.97035 | -87.92043 | 671 ft | 8 kts | 250° |
| 2026-04-30 19:00 | 41.96915 | -87.92049 | 671 ft | 9 kts | 138° |
| 2026-04-30 19:01 | 41.96903 | -87.92017 | 671 ft | 0 kts | 99° |
| 2026-04-30 19:02 | 41.96901 | -87.91976 | 671 ft | 23 kts | 91° |
| 2026-04-30 19:03 | 41.96904 | -87.89954 | 882 ft | 166 kts | 89° |
| 2026-04-30 19:03 | 41.96928 | -87.86842 | 2668 ft | 175 kts | 89° |
| 2026-04-30 19:04 | 41.97276 | -87.83378 | 3764 ft | 206 kts | 53° |
| 2026-04-30 19:04 | 41.99943 | -87.82525 | 4836 ft | 226 kts | 331° |
| 2026-04-30 19:05 | 42.02481 | -87.85434 | 6292 ft | 251 kts | 313° |
| 2026-04-30 19:05 | 42.05452 | -87.88174 | 8170 ft | 268 kts | 333° |
| 2026-04-30 19:06 | 42.09067 | -87.89298 | 10269 ft | 274 kts | 346° |
| 2026-04-30 19:06 | 42.10971 | -87.89628 | 11032 ft | 285 kts | 347° |
| 2026-04-30 19:06 | 42.15100 | -87.90359 | 12272 ft | 313 kts | 346° |
| 2026-04-30 19:07 | 42.19542 | -87.91200 | 13826 ft | 330 kts | 346° |
| 2026-04-30 19:07 | 42.21806 | -87.91631 | 14734 ft | 333 kts | 346° |
| 2026-04-30 19:08 | 42.26397 | -87.92510 | 16438 ft | 339 kts | 345° |
| 2026-04-30 19:08 | 42.31099 | -87.93415 | 18022 ft | 347 kts | 345° |
| 2026-04-30 19:08 | 42.33516 | -87.93795 | 18839 ft | 351 kts | 347° |
| 2026-04-30 19:09 | 42.38464 | -87.94366 | 20242 ft | 362 kts | 348° |
| 2026-04-30 19:09 | 42.40977 | -87.94640 | 21002 ft | 364 kts | 348° |
| 2026-04-30 19:09 | 42.43485 | -87.94918 | 21645 ft | 368 kts | 348° |
| 2026-04-30 19:10 | 42.48630 | -87.95509 | 22958 ft | 375 kts | 348° |
| 2026-04-30 19:10 | 42.53830 | -87.96138 | 24186 ft | 382 kts | 347° |
| 2026-04-30 19:11 | 42.56488 | -87.96465 | 24776 ft | 385 kts | 347° |
| 2026-04-30 19:11 | 42.61863 | -87.97129 | 25859 ft | 392 kts | 347° |
| 2026-04-30 19:11 | 42.64560 | -87.97422 | 26353 ft | 397 kts | 348° |
| 2026-04-30 19:12 | 42.67342 | -87.97652 | 26922 ft | 399 kts | 349° |
| 2026-04-30 19:12 | 42.70089 | -87.97923 | 27434 ft | 399 kts | 346° |
| 2026-04-30 19:12 | 42.72839 | -87.98597 | 27895 ft | 394 kts | 337° |
| 2026-04-30 19:13 | 42.77758 | -88.01534 | 28859 ft | 389 kts | 325° |
| 2026-04-30 19:13 | 42.82448 | -88.05271 | 29757 ft | 393 kts | 323° |
| 2026-04-30 19:13 | 42.84793 | -88.07183 | 30510 ft | 388 kts | 323° |
| 2026-04-30 19:14 | 42.87084 | -88.09034 | 31076 ft | 384 kts | 323° |
| 2026-04-30 19:14 | 42.89389 | -88.10882 | 31394 ft | 387 kts | 323° |
| 2026-04-30 19:14 | 42.91719 | -88.12738 | 31688 ft | 390 kts | 323° |
| 2026-04-30 19:14 | 42.94055 | -88.14587 | 32032 ft | 392 kts | 324° |
| 2026-04-30 19:15 | 42.96415 | -88.16447 | 32363 ft | 393 kts | 324° |
| 2026-04-30 19:15 | 43.01160 | -88.20178 | 33052 ft | 394 kts | 324° |
| 2026-04-30 19:15 | 43.03511 | -88.22026 | 33381 ft | 395 kts | 324° |
| 2026-04-30 19:16 | 43.05878 | -88.23888 | 33744 ft | 394 kts | 324° |
| 2026-04-30 19:16 | 43.08253 | -88.25795 | 34008 ft | 394 kts | 323° |
| 2026-04-30 19:16 | 43.12591 | -88.30363 | 34039 ft | 389 kts | 311° |
| 2026-04-30 19:17 | 43.14437 | -88.33043 | 34043 ft | 385 kts | 308° |
| 2026-04-30 19:17 | 43.19494 | -88.41558 | 34027 ft | 386 kts | 305° |
| 2026-04-30 19:18 | 43.24463 | -88.50149 | 34015 ft | 385 kts | 305° |
| 2026-04-30 19:19 | 43.27790 | -88.55875 | 34007 ft | 385 kts | 306° |
| 2026-04-30 19:19 | 43.32795 | -88.64476 | 34017 ft | 385 kts | 306° |
| 2026-04-30 19:20 | 43.36115 | -88.70195 | 34026 ft | 387 kts | 305° |
| 2026-04-30 19:21 | 43.41132 | -88.78851 | 34020 ft | 385 kts | 305° |
| 2026-04-30 19:22 | 43.47805 | -88.90404 | 34009 ft | 384 kts | 305° |
| 2026-04-30 19:23 | 43.57802 | -89.07805 | 33993 ft | 387 kts | 305° |
| 2026-04-30 19:24 | 43.62788 | -89.16518 | 33995 ft | 387 kts | 305° |
| 2026-04-30 19:25 | 43.71133 | -89.31163 | 34000 ft | 388 kts | 305° |
| 2026-04-30 19:26 | 43.77807 | -89.42929 | 33995 ft | 389 kts | 305° |
| 2026-04-30 19:27 | 43.82802 | -89.51769 | 33997 ft | 391 kts | 305° |
| 2026-04-30 19:28 | 43.87814 | -89.60662 | 33992 ft | 392 kts | 306° |
| 2026-04-30 19:29 | 43.94501 | -89.72573 | 33998 ft | 393 kts | 305° |
| 2026-04-30 19:30 | 44.01179 | -89.84515 | 33997 ft | 393 kts | 305° |
| 2026-04-30 19:31 | 44.07875 | -89.96536 | 34000 ft | 394 kts | 305° |
| 2026-04-30 19:31 | 44.13005 | -90.05360 | 34003 ft | 394 kts | 307° |
| 2026-04-30 19:32 | 44.16505 | -90.11290 | 33880 ft | 395 kts | 307° |
| 2026-04-30 19:32 | 44.18232 | -90.14226 | 33535 ft | 391 kts | 307° |
| 2026-04-30 19:32 | 44.19926 | -90.17116 | 33051 ft | 391 kts | 307° |
| 2026-04-30 19:33 | 44.21642 | -90.20051 | 32581 ft | 391 kts | 307° |
| 2026-04-30 19:33 | 44.23349 | -90.22977 | 32157 ft | 389 kts | 306° |
| 2026-04-30 19:33 | 44.25042 | -90.25884 | 31712 ft | 387 kts | 306° |
| 2026-04-30 19:33 | 44.26723 | -90.28773 | 31234 ft | 382 kts | 306° |
| 2026-04-30 19:34 | 44.28370 | -90.31604 | 30806 ft | 368 kts | 306° |
| 2026-04-30 19:34 | 44.29929 | -90.34285 | 30326 ft | 355 kts | 306° |
| 2026-04-30 19:34 | 44.32910 | -90.39426 | 29513 ft | 327 kts | 306° |
| 2026-04-30 19:35 | 44.34304 | -90.41833 | 29190 ft | 310 kts | 306° |
| 2026-04-30 19:35 | 44.35628 | -90.44067 | 29005 ft | 287 kts | 307° |
| 2026-04-30 19:35 | 44.36746 | -90.46162 | 29005 ft | 255 kts | 293° |
| 2026-04-30 19:35 | 44.37101 | -90.48498 | 29014 ft | 244 kts | 268° |
| 2026-04-30 19:36 | 44.36615 | -90.50790 | 29014 ft | 254 kts | 248° |
| 2026-04-30 19:36 | 44.35560 | -90.52825 | 29010 ft | 266 kts | 233° |
| 2026-04-30 19:36 | 44.32894 | -90.56414 | 28999 ft | 263 kts | 250° |
| 2026-04-30 19:37 | 44.32452 | -90.58827 | 29019 ft | 258 kts | 275° |
| 2026-04-30 19:37 | 44.32887 | -90.61240 | 29032 ft | 263 kts | 299° |
| 2026-04-30 19:37 | 44.34132 | -90.63210 | 29021 ft | 276 kts | 319° |
| 2026-04-30 19:37 | 44.35831 | -90.64544 | 29024 ft | 290 kts | 333° |
| 2026-04-30 19:38 | 44.37779 | -90.65482 | 29021 ft | 297 kts | 334° |
| 2026-04-30 19:38 | 44.39700 | -90.66587 | 29020 ft | 297 kts | 324° |
| 2026-04-30 19:38 | 44.41325 | -90.68274 | 29022 ft | 295 kts | 310° |
| 2026-04-30 19:38 | 44.42667 | -90.70525 | 28845 ft | 303 kts | 301° |
| 2026-04-30 19:39 | 44.43725 | -90.73089 | 28619 ft | 314 kts | 294° |
| 2026-04-30 19:39 | 44.44660 | -90.75965 | 28390 ft | 333 kts | 292° |
| 2026-04-30 19:39 | 44.45566 | -90.79005 | 28127 ft | 351 kts | 291° |
| 2026-04-30 19:39 | 44.46502 | -90.82220 | 27849 ft | 352 kts | 291° |
| 2026-04-30 19:40 | 44.47406 | -90.85334 | 27590 ft | 349 kts | 291° |
| 2026-04-30 19:40 | 44.48318 | -90.88467 | 27334 ft | 346 kts | 291° |
| 2026-04-30 19:40 | 44.49227 | -90.91585 | 27083 ft | 345 kts | 291° |
| 2026-04-30 19:40 | 44.50137 | -90.94704 | 26833 ft | 347 kts | 291° |
| 2026-04-30 19:41 | 44.51051 | -90.97826 | 26575 ft | 344 kts | 291° |
| 2026-04-30 19:41 | 44.51940 | -91.00870 | 26326 ft | 342 kts | 291° |
| 2026-04-30 19:41 | 44.52841 | -91.03956 | 26076 ft | 341 kts | 291° |
| 2026-04-30 19:41 | 44.53739 | -91.07034 | 25820 ft | 340 kts | 291° |
| 2026-04-30 19:42 | 44.54625 | -91.10071 | 25573 ft | 339 kts | 291° |
| 2026-04-30 19:42 | 44.55516 | -91.13134 | 25322 ft | 340 kts | 291° |
| 2026-04-30 19:42 | 44.56400 | -91.16175 | 25076 ft | 339 kts | 292° |
| 2026-04-30 19:42 | 44.57286 | -91.19224 | 24812 ft | 337 kts | 292° |
| 2026-04-30 19:43 | 44.58161 | -91.22239 | 24555 ft | 334 kts | 292° |
| 2026-04-30 19:43 | 44.59030 | -91.25240 | 24304 ft | 333 kts | 292° |
| 2026-04-30 19:43 | 44.59900 | -91.28248 | 24055 ft | 333 kts | 291° |
| 2026-04-30 19:44 | 44.61618 | -91.34191 | 24037 ft | 331 kts | 291° |
| 2026-04-30 19:44 | 44.62471 | -91.37151 | 23986 ft | 329 kts | 292° |
| 2026-04-30 19:44 | 44.63324 | -91.40102 | 23550 ft | 327 kts | 292° |
| 2026-04-30 19:44 | 44.64172 | -91.43040 | 22974 ft | 326 kts | 292° |
| 2026-04-30 19:45 | 44.65023 | -91.45992 | 22420 ft | 325 kts | 292° |
| 2026-04-30 19:45 | 44.65873 | -91.48942 | 21599 ft | 331 kts | 292° |
| 2026-04-30 19:45 | 44.66721 | -91.51891 | 21266 ft | 323 kts | 292° |
| 2026-04-30 19:45 | 44.67552 | -91.54781 | 20768 ft | 320 kts | 292° |
| 2026-04-30 19:46 | 44.68377 | -91.57658 | 20295 ft | 317 kts | 292° |
| 2026-04-30 19:46 | 44.69179 | -91.60459 | 20012 ft | 304 kts | 292° |
| 2026-04-30 19:46 | 44.69951 | -91.63157 | 19643 ft | 290 kts | 292° |
| 2026-04-30 19:46 | 44.70683 | -91.65718 | 19279 ft | 277 kts | 291° |
| 2026-04-30 19:47 | 44.71380 | -91.68159 | 18982 ft | 264 kts | 291° |
| 2026-04-30 19:47 | 44.71825 | -91.69723 | 18784 ft | 256 kts | 291° |
| 2026-04-30 19:47 | 44.72671 | -91.72694 | 18466 ft | 239 kts | 291° |
| 2026-04-30 19:47 | 44.73285 | -91.74853 | 18054 ft | 235 kts | 291° |
| 2026-04-30 19:48 | 44.73867 | -91.76901 | 17989 ft | 218 kts | 292° |
| 2026-04-30 19:48 | 44.74413 | -91.78822 | 17696 ft | 212 kts | 292° |
| 2026-04-30 19:48 | 44.74963 | -91.80756 | 17031 ft | 222 kts | 292° |
| 2026-04-30 19:48 | 44.75546 | -91.82800 | 16394 ft | 228 kts | 292° |
| 2026-04-30 19:49 | 44.76132 | -91.84849 | 15902 ft | 228 kts | 292° |
| 2026-04-30 19:49 | 44.77170 | -91.89022 | 15007 ft | 226 kts | 280° |
| 2026-04-30 19:49 | 44.77024 | -91.91231 | 14748 ft | 234 kts | 255° |
| 2026-04-30 19:50 | 44.76216 | -91.93245 | 14498 ft | 241 kts | 236° |
| 2026-04-30 19:50 | 44.74961 | -91.94833 | 14247 ft | 247 kts | 215° |
| 2026-04-30 19:50 | 44.73302 | -91.95553 | 13991 ft | 255 kts | 187° |
| 2026-04-30 19:50 | 44.71552 | -91.95198 | 13920 ft | 257 kts | 164° |
| 2026-04-30 19:51 | 44.69961 | -91.94022 | 13916 ft | 264 kts | 141° |
| 2026-04-30 19:51 | 44.68871 | -91.91973 | 13923 ft | 264 kts | 114° |
| 2026-04-30 19:51 | 44.68209 | -91.89561 | 13918 ft | 265 kts | 107° |
| 2026-04-30 19:51 | 44.67622 | -91.87135 | 13919 ft | 264 kts | 107° |
| 2026-04-30 19:52 | 44.67009 | -91.84699 | 13923 ft | 263 kts | 108° |
| 2026-04-30 19:52 | 44.66376 | -91.82286 | 13917 ft | 264 kts | 109° |
| 2026-04-30 19:52 | 44.65725 | -91.79860 | 13699 ft | 266 kts | 109° |
| 2026-04-30 19:52 | 44.65072 | -91.77451 | 13443 ft | 262 kts | 109° |
| 2026-04-30 19:53 | 44.64429 | -91.75079 | 13187 ft | 260 kts | 109° |
| 2026-04-30 19:53 | 44.63796 | -91.72735 | 12935 ft | 260 kts | 109° |
| 2026-04-30 19:53 | 44.63149 | -91.70315 | 12818 ft | 262 kts | 108° |
| 2026-04-30 19:53 | 44.62682 | -91.67857 | 13001 ft | 268 kts | 95° |
| 2026-04-30 19:54 | 44.62873 | -91.65284 | 13196 ft | 261 kts | 64° |
| 2026-04-30 19:54 | 44.63895 | -91.63289 | 13385 ft | 253 kts | 36° |
| 2026-04-30 19:54 | 44.65384 | -91.62032 | 13580 ft | 248 kts | 18° |
| 2026-04-30 19:54 | 44.67026 | -91.61462 | 13772 ft | 242 kts | 358° |
| 2026-04-30 19:55 | 44.68623 | -91.61937 | 13962 ft | 236 kts | 332° |
| 2026-04-30 19:55 | 44.69961 | -91.63280 | 14164 ft | 234 kts | 315° |
| 2026-04-30 19:55 | 44.70955 | -91.65125 | 14339 ft | 250 kts | 297° |
| 2026-04-30 19:55 | 44.71658 | -91.67512 | 14518 ft | 270 kts | 290° |
| 2026-04-30 19:56 | 44.72281 | -91.69996 | 14566 ft | 271 kts | 290° |
| 2026-04-30 19:56 | 44.72907 | -91.72494 | 14601 ft | 279 kts | 290° |
| 2026-04-30 19:56 | 44.73575 | -91.75082 | 14588 ft | 283 kts | 291° |
| 2026-04-30 19:56 | 44.74253 | -91.77651 | 14593 ft | 283 kts | 291° |
| 2026-04-30 19:57 | 44.74949 | -91.80259 | 14546 ft | 281 kts | 291° |
| 2026-04-30 19:57 | 44.75621 | -91.82771 | 14218 ft | 278 kts | 291° |
| 2026-04-30 19:57 | 44.76308 | -91.85332 | 13975 ft | 278 kts | 291° |
| 2026-04-30 19:57 | 44.76991 | -91.87871 | 13941 ft | 281 kts | 291° |
| 2026-04-30 19:58 | 44.77694 | -91.90458 | 13933 ft | 283 kts | 292° |
| 2026-04-30 19:58 | 44.78394 | -91.93024 | 13808 ft | 286 kts | 292° |
| 2026-04-30 19:58 | 44.79105 | -91.95634 | 13552 ft | 283 kts | 292° |
| 2026-04-30 19:58 | 44.79808 | -91.98221 | 13298 ft | 280 kts | 292° |
| 2026-04-30 19:59 | 44.80493 | -92.00745 | 13051 ft | 278 kts | 292° |
| 2026-04-30 19:59 | 44.81186 | -92.03307 | 12800 ft | 278 kts | 292° |
| 2026-04-30 19:59 | 44.82542 | -92.08330 | 12283 ft | 275 kts | 292° |
| 2026-04-30 20:00 | 44.83220 | -92.10841 | 12031 ft | 274 kts | 292° |
| 2026-04-30 20:00 | 44.83897 | -92.13357 | 11923 ft | 272 kts | 292° |
| 2026-04-30 20:00 | 44.84567 | -92.15848 | 11918 ft | 275 kts | 292° |
| 2026-04-30 20:00 | 44.85198 | -92.18359 | 11911 ft | 271 kts | 287° |
| 2026-04-30 20:01 | 44.85692 | -92.23495 | 11375 ft | 265 kts | 276° |
| 2026-04-30 20:01 | 44.85797 | -92.26115 | 10995 ft | 264 kts | 276° |
| 2026-04-30 20:01 | 44.85915 | -92.28661 | 10680 ft | 261 kts | 277° |
| 2026-04-30 20:02 | 44.86187 | -92.33572 | 10386 ft | 243 kts | 277° |
| 2026-04-30 20:02 | 44.86306 | -92.35915 | 10148 ft | 239 kts | 277° |
| 2026-04-30 20:03 | 44.86528 | -92.40523 | 9916 ft | 238 kts | 277° |
| 2026-04-30 20:03 | 44.86642 | -92.42866 | 9802 ft | 239 kts | 277° |
| 2026-04-30 20:03 | 44.86754 | -92.45187 | 9545 ft | 236 kts | 277° |
| 2026-04-30 20:03 | 44.86849 | -92.47464 | 9251 ft | 235 kts | 274° |
| 2026-04-30 20:04 | 44.86637 | -92.49758 | 8953 ft | 241 kts | 254° |
| 2026-04-30 20:04 | 44.85907 | -92.51897 | 8663 ft | 244 kts | 244° |
| 2026-04-30 20:04 | 44.85052 | -92.53981 | 8344 ft | 243 kts | 244° |
| 2026-04-30 20:05 | 44.83454 | -92.58137 | 7743 ft | 241 kts | 246° |
| 2026-04-30 20:05 | 44.82695 | -92.60214 | 7446 ft | 240 kts | 247° |
| 2026-04-30 20:05 | 44.81181 | -92.64363 | 6922 ft | 236 kts | 247° |
| 2026-04-30 20:06 | 44.80425 | -92.66425 | 6936 ft | 239 kts | 246° |
| 2026-04-30 20:06 | 44.79667 | -92.68494 | 6932 ft | 240 kts | 246° |
| 2026-04-30 20:06 | 44.78894 | -92.70602 | 6936 ft | 239 kts | 246° |
| 2026-04-30 20:06 | 44.78141 | -92.72664 | 6942 ft | 240 kts | 246° |
| 2026-04-30 20:07 | 44.77411 | -92.74788 | 6938 ft | 238 kts | 252° |
| 2026-04-30 20:07 | 44.77077 | -92.76994 | 6908 ft | 229 kts | 274° |
| 2026-04-30 20:07 | 44.77476 | -92.81400 | 6233 ft | 228 kts | 281° |
| 2026-04-30 20:08 | 44.77673 | -92.83596 | 5909 ft | 229 kts | 279° |
| 2026-04-30 20:08 | 44.77834 | -92.85805 | 5572 ft | 229 kts | 278° |
| 2026-04-30 20:08 | 44.77985 | -92.88032 | 5201 ft | 227 kts | 278° |
| 2026-04-30 20:08 | 44.78129 | -92.90192 | 4890 ft | 214 kts | 279° |
| 2026-04-30 20:09 | 44.78261 | -92.92165 | 4740 ft | 194 kts | 279° |
| 2026-04-30 20:09 | 44.78385 | -92.93984 | 4654 ft | 185 kts | 279° |
| 2026-04-30 20:09 | 44.78637 | -92.97569 | 4270 ft | 180 kts | 280° |
| 2026-04-30 20:10 | 44.78943 | -93.00988 | 3935 ft | 171 kts | 290° |
| 2026-04-30 20:10 | 44.79523 | -93.02330 | 3962 ft | 153 kts | 314° |
| 2026-04-30 20:10 | 44.80111 | -93.03528 | 3885 ft | 151 kts | 304° |
| 2026-04-30 20:11 | 44.81224 | -93.06042 | 3627 ft | 149 kts | 306° |
| 2026-04-30 20:11 | 44.81795 | -93.07263 | 3386 ft | 151 kts | 307° |
| 2026-04-30 20:11 | 44.82333 | -93.08512 | 3146 ft | 145 kts | 304° |
| 2026-04-30 20:12 | 44.83364 | -93.10933 | 2566 ft | 150 kts | 305° |
| 2026-04-30 20:12 | 44.83939 | -93.12138 | 2317 ft | 144 kts | 305° |
| 2026-04-30 20:12 | 44.84422 | -93.13364 | 2062 ft | 142 kts | 300° |
| 2026-04-30 20:13 | 44.84896 | -93.14550 | 1805 ft | 138 kts | 305° |
| 2026-04-30 20:13 | 44.85412 | -93.15692 | 1561 ft | 137 kts | 304° |
| 2026-04-30 20:13 | 44.85901 | -93.16810 | 1410 ft | 133 kts | 304° |
| 2026-04-30 20:13 | 44.86393 | -93.17909 | 1243 ft | 132 kts | 303° |
| 2026-04-30 20:14 | 44.86877 | -93.19030 | 1036 ft | 131 kts | 304° |
| 2026-04-30 20:14 | 44.87358 | -93.20132 | 854 ft | 131 kts | 303° |
| 2026-04-30 20:14 | 44.87797 | -93.21134 | 820 ft | 96 kts | 302° |
| 2026-04-30 20:14 | 44.88005 | -93.21618 | 824 ft | 25 kts | 303° |
| 2026-04-30 20:15 | 44.88065 | -93.21754 | 824 ft | 20 kts | 301° |
| 2026-04-30 20:15 | 44.88132 | -93.21911 | 826 ft | 15 kts | 301° |
| 2026-04-30 20:15 | 44.88203 | -93.22009 | 828 ft | 12 kts | 355° |
| 2026-04-30 20:15 | 44.88284 | -93.21960 | 827 ft | 13 kts | 34° |
| 2026-04-30 20:16 | 44.88308 | -93.21853 | 827 ft | 13 kts | 117° |
| 2026-04-30 20:16 | 44.88258 | -93.21733 | 826 ft | 15 kts | 121° |
| 2026-04-30 20:16 | 44.88193 | -93.21584 | 824 ft | 19 kts | 121° |
| 2026-04-30 20:16 | 44.88092 | -93.21455 | 823 ft | 20 kts | 146° |
| 2026-04-30 20:17 | 44.88015 | -93.21277 | 821 ft | 22 kts | 98° |
| 2026-04-30 20:17 | 44.88010 | -93.21173 | 821 ft | 9 kts | 108° |
| 2026-04-30 20:17 | 44.87975 | -93.21085 | 819 ft | 11 kts | 120° |
| 2026-04-30 20:17 | 44.87932 | -93.20979 | 817 ft | 11 kts | 121° |
| 2026-04-30 20:18 | 44.87902 | -93.20912 | 816 ft | 7 kts | 119° |
| 2026-04-30 20:18 | 44.87895 | -93.20892 | 816 ft | 1 kts | 110° |
| 2026-04-30 20:18 | 44.87896 | -93.20873 | 816 ft | 2 kts | 68° |
| 2026-04-30 20:18 | 44.87901 | -93.20863 | 816 ft | 1 kts | 51° |
| 2026-04-30 20:19 | 44.87921 | -93.20837 | 816 ft | 4 kts | 36° |
| 2026-04-30 20:19 | 44.87934 | -93.20825 | 816 ft | 2 kts | 34° |
| 2026-04-30 20:19 | 44.87944 | -93.20816 | 817 ft | 0 kts | 32° |
| 2026-04-30 20:19 | 44.87948 | -93.20812 | 817 ft | 0 kts | 31° |
| 2026-04-30 20:20 | 44.87950 | -93.20811 | 817 ft | 0 kts | 31° |
| 2026-04-30 20:20 | 44.87951 | -93.20810 | 817 ft | 0 kts | 31° |